Latest Weather Observations for Sydney Airport

IDN60801

Issued at 5:02 pm EST Wednesday 25 May 2016 (issued every 30 minutes, with the page automatically refreshed every 10 minutes)

About weather observations | Map of weather stations | Latest weather observations for NSW | Other Formats
Station Details ID: 066037 Name: SYDNEY AIRPORT AMO Lat: -33.95 Lon: 151.17 Height: 6.0 m
Data from the previous 72 hours. | See also: Recent months at Sydney Airport
Date/Time
EST
Temp
°C
App
Temp
°C
Dew
Point
Rel
Hum
%
Delta-T
°C
Wind Press
QNH
hPa
Press
MSL
hPa
Rain
since 9 am
mm
Dir
 
Spd
km/h
Gust
km/h
Spd
kts
Gust
kts
25/04:30pm 17.6 13.9 4.5 42 6.2 ENE 13 17 7 9 1013.2 1013.2 0.0
25/04:00pm 18.7 14.0 3.3 36 7.2 ENE 17 19 9 10 1013.1 1013.1 0.0
25/03:30pm 20.2 15.7 -3.2 20 9.7 ESE 11 15 6 8 1013.1 1013.1 0.0
25/03:00pm 21.0 17.6 -1.8 21 9.8 E 6 9 3 5 1013.3 1013.3 0.0
25/02:30pm 20.2 16.4 -1.0 24 9.2 ENE 9 11 5 6 1013.2 1013.2 0.0
25/02:00pm 20.4 17.0 -0.6 24 9.2 ENE 7 7 4 4 1013.5 1013.5 0.0
25/01:30pm 19.2 16.4 1.8 31 7.9 NNE 6 7 3 4 1014.1 1014.1 0.0
25/01:00pm 18.8 15.3 1.1 30 7.9 WNW 9 13 5 7 1014.6 1014.6 0.0
25/12:30pm 18.0 14.6 1.8 33 7.3 NW 9 13 5 7 1015.1 1015.1 0.0
25/12:00pm 18.2 14.4 1.8 33 7.4 WNW 11 15 6 8 1015.7 1015.7 0.0
25/11:30am 18.4 15.1 2.4 34 7.3 WNW 9 13 5 7 1016.1 1016.1 0.0
25/11:00am 18.3 13.3 1.2 31 7.6 W 17 20 9 11 1017.1 1017.1 0.0
25/10:30am 17.4 12.1 1.7 35 7.0 WNW 19 26 10 14 1017.5 1017.5 0.0
25/10:00am 17.2 10.7 2.4 37 6.7 WSW 26 35 14 19 1017.7 1017.7 0.0
25/09:30am 15.3 8.6 1.6 39 6.0 WSW 26 33 14 18 1017.6 1017.6 0.0
25/09:00am 15.0 9.2 2.4 42 5.6 W 22 32 12 17 1017.7 1017.7 0.0
25/08:30am 13.4 7.6 2.4 47 4.8 WSW 22 32 12 17 1017.7 1017.7 0.0
25/08:00am 12.4 7.2 3.4 54 4.0 WNW 20 28 11 15 1017.7 1017.7 0.0
25/07:30am 11.1 7.2 3.3 58 3.4 WNW 13 19 7 10 1017.4 1017.4 0.0
25/07:00am 10.7 5.7 3.6 61 3.1 W 19 28 10 15 1017.3 1017.3 0.0
25/06:30am 10.2 5.2 3.6 63 2.9 W 19 28 10 15 1017.1 1017.1 0.0
25/06:00am 10.0 5.4 3.6 64 2.8 W 17 20 9 11 1016.9 1016.9 0.0
25/05:30am 11.2 7.0 3.7 60 3.3 WSW 15 20 8 11 1016.6 1016.6 0.0
25/05:00am 11.4 8.3 3.7 59 3.4 NW 9 15 5 8 1016.5 1016.5 0.0
25/04:30am 11.0 7.9 3.5 60 3.3 NNW 9 15 5 8 1016.7 1016.7 0.0
25/04:00am 11.1 6.2 3.9 61 3.2 W 19 24 10 13 1016.6 1016.6 0.0
25/03:30am 10.6 5.7 4.3 65 2.8 W 19 26 10 14 1016.5 1016.5 0.0
25/03:00am 12.3 7.3 3.5 55 3.9 W 19 22 10 12 1016.6 1016.6 0.0
25/02:30am 12.3 6.7 3.5 55 3.9 W 22 26 12 14 1016.8 1016.8 0.0
25/02:00am 12.3 7.1 3.5 55 3.9 WSW 20 26 11 14 1016.9 1016.9 0.0
25/01:30am 12.1 7.5 3.8 57 3.7 WSW 17 22 9 12 1017.0 1017.0 0.0
25/01:00am 11.3 6.8 4.1 61 3.2 WSW 17 20 9 11 1017.3 1017.3 0.0
25/12:30am 12.1 7.5 3.5 55 3.8 W 17 20 9 11 1017.3 1017.3 0.0
25/12:00am 12.2 7.5 3.4 55 3.9 WSW 17 20 9 11 1017.4 1017.4 0.0
 
Date/Time
EST
Temp
°C
App
Temp
°C
Dew
Point
Rel
Hum
%
Delta-T
°C
Wind Press
QNH
hPa
Press
MSL
hPa
Rain
since 9 am
mm
Dir
 
Spd
km/h
Gust
km/h
Spd
kts
Gust
kts
24/11:30pm 12.4 7.4 3.4 54 4.0 W 19 22 10 12 1017.4 1017.4 0.0
24/11:00pm 12.8 7.7 3.1 51 4.3 W 19 20 10 11 1017.6 1017.6 0.0
24/10:30pm 13.0 7.8 3.3 51 4.3 W 20 22 11 12 1017.5 1017.5 0.0
24/10:00pm 13.5 7.5 3.2 49 4.6 WSW 24 28 13 15 1017.4 1017.4 0.0
24/09:30pm 14.1 8.0 2.6 46 5.1 WSW 24 30 13 16 1017.3 1017.3 0.0
24/09:00pm 14.4 8.3 2.7 45 5.2 W 24 32 13 17 1017.3 1017.3 0.0
24/08:30pm 15.1 9.0 2.5 42 5.6 WSW 24 32 13 17 1017.1 1017.1 0.0
24/08:00pm 15.6 9.4 2.1 40 6.0 W 24 32 13 17 1016.7 1016.7 0.0
24/07:30pm 15.7 10.4 1.9 39 6.1 W 19 20 10 11 1016.4 1016.4 0.0
24/07:00pm 15.9 10.9 1.6 38 6.3 WSW 17 35 9 19 1016.0 1016.0 0.0
24/06:30pm 16.3 12.4 1.2 36 6.6 W 11 15 6 8 1015.5 1015.5 0.0
24/06:00pm 17.5 13.4 -0.2 30 7.6 W 11 19 6 10 1015.4 1015.4 0.0
24/05:30pm 17.7 12.4 -0.5 29 7.8 WSW 17 22 9 12 1014.9 1014.9 0.0
24/05:00pm 18.4 11.3 -1.1 26 8.3 WSW 26 33 14 18 1014.5 1014.5 0.0
24/04:30pm 19.4 12.6 -1.9 23 9.0 W 24 32 13 17 1014.3 1014.3 0.0
24/04:00pm 19.4 12.1 0.1 27 8.5 WSW 28 33 15 18 1014.2 1014.2 0.0
24/03:30pm 20.6 13.8 -1.8 22 9.6 WSW 24 33 13 18 1013.9 1013.9 0.0
24/03:00pm 21.2 14.0 -2.2 20 10.0 WSW 26 33 14 18 1013.6 1013.6 0.0
24/02:30pm 21.3 14.8 -2.4 20 10.1 WSW 22 30 12 16 1013.6 1013.6 0.0
24/02:00pm 20.3 14.4 -2.1 22 9.5 WSW 19 30 10 16 1013.8 1013.8 0.0
24/01:30pm 20.3 13.1 -2.1 22 9.5 W 26 37 14 20 1014.1 1014.1 0.0
24/01:00pm 20.7 12.8 -1.6 22 9.6 WSW 30 37 16 20 1014.3 1014.3 0.0
24/12:30pm 18.9 11.2 -0.1 28 8.3 WSW 30 41 16 22 1014.9 1014.9 0.0
24/12:00pm 19.3 12.8 0.2 27 8.4 WSW 24 32 13 17 1015.4 1015.4 0.0
24/11:30am 18.2 10.2 1.4 32 7.5 WSW 33 43 18 23 1015.9 1015.9 0.0
24/11:00am 18.1 9.8 2.2 34 7.2 W 35 46 19 25 1016.7 1016.7 0.0
24/10:30am 17.5 9.8 2.2 36 6.9 W 32 41 17 22 1017.3 1017.3 0.0
24/10:12am 16.5 8.9 2.8 40 6.2 W 32 50 17 27 1017.6 1017.6 0.0
24/10:00am 16.0 9.7 3.6 43 5.7 W 26 35 14 19 1017.8 1017.8 0.0
24/09:30am 14.9 9.1 2.5 43 5.5 WNW 22 30 12 16 1018.1 1018.1 0.0
24/09:00am 15.4 10.2 2.4 41 5.8 NW 19 26 10 14 1018.2 1018.2 0.0
24/08:30am 13.9 8.6 1.9 44 5.2 WNW 19 26 10 14 1018.2 1018.2 0.0
24/08:00am 12.5 6.6 2.0 48 4.5 WNW 22 26 12 14 1018.1 1018.1 0.0
24/07:30am 12.6 8.6 2.8 51 4.3 NW 13 17 7 9 1017.8 1017.8 0.0
24/07:00am 11.9 7.1 2.4 52 4.1 WNW 17 24 9 13 1017.6 1017.6 0.0
24/06:30am 11.4 6.2 2.6 54 3.8 WNW 19 24 10 13 1017.4 1017.4 0.0
24/06:00am 11.9 6.7 2.7 53 4.0 WNW 19 24 10 13 1017.5 1017.5 0.0
24/05:30am 12.1 5.6 2.7 52 4.1 WNW 26 30 14 16 1017.7 1017.7 0.0
24/05:00am 12.4 6.3 2.8 52 4.2 W 24 32 13 17 1018.0 1018.0 0.0
24/04:30am 12.4 6.3 2.5 51 4.3 W 24 32 13 17 1018.1 1018.1 0.0
24/04:00am 12.1 4.8 2.4 51 4.2 W 30 37 16 20 1018.0 1018.0 0.0
24/03:30am 12.1 5.9 2.1 50 4.3 W 24 32 13 17 1018.2 1018.2 0.0
24/03:00am 12.9 4.6 2.0 47 4.7 W 35 46 19 25 1018.1 1018.1 0.0
24/02:30am 13.9 4.0 1.6 43 5.3 WSW 43 56 23 30 1018.1 1018.1 0.0
24/02:04am 13.8 3.6 0.8 41 5.5 WSW 44 63 24 34 1017.9 1017.9 0.0
24/02:00am 13.7 3.1 1.0 42 5.4 WSW 46 63 25 34 1017.9 1017.9 0.0
24/01:30am 13.3 3.3 1.0 43 5.2 W 43 56 23 30 1017.7 1017.7 0.0
24/01:00am 13.2 5.1 1.2 44 5.1 W 33 41 18 22 1017.8 1017.8 0.0
24/12:30am 13.1 6.0 1.4 45 5.0 W 28 35 15 19 1017.8 1017.8 0.0
24/12:00am 13.7 6.2 1.0 42 5.4 W 30 33 16 18 1017.9 1017.9 0.0
 
Date/Time
EST
Temp
°C
App
Temp
°C
Dew
Point
Rel
Hum
%
Delta-T
°C
Wind Press
QNH
hPa
Press
MSL
hPa
Rain
since 9 am
mm
Dir
 
Spd
km/h
Gust
km/h
Spd
kts
Gust
kts
23/11:30pm 13.9 6.1 1.6 43 5.3 W 32 39 17 21 1017.9 1017.9 0.0
23/11:00pm 14.3 6.3 1.6 42 5.5 W 33 43 18 23 1017.9 1017.9 0.0
23/10:30pm 14.8 6.0 1.1 39 5.9 W 37 44 20 24 1017.6 1017.6 0.0
23/10:00pm 15.1 4.9 0.9 38 6.1 W 44 56 24 30 1017.1 1017.1 0.0
23/09:30pm 15.4 6.5 0.7 37 6.3 W 37 48 20 26 1017.3 1017.3 0.0
23/09:00pm 15.4 7.3 0.7 37 6.3 W 33 39 18 21 1017.0 1017.0 0.0
23/08:30pm 16.1 6.7 -0.2 33 6.9 W 39 48 21 26 1017.2 1017.2 0.0
23/08:00pm 16.3 7.6 -0.2 32 7.0 WNW 35 48 19 26 1016.8 1016.8 0.0
23/07:30pm 17.1 7.6 -0.9 29 7.6 W 39 50 21 27 1016.5 1016.5 0.0
23/07:00pm 17.4 9.1 -1.5 27 7.9 W 32 46 17 25 1016.2 1016.2 0.0
23/06:30pm 17.6 9.1 -1.5 27 8.0 W 33 41 18 22 1015.9 1015.9 0.0
23/06:20pm 18.0 10.1 -1.9 26 8.3 W 30 48 16 26 1015.8 1015.8 0.0
23/06:00pm 18.4 10.3 -2.8 23 8.7 W 30 46 16 25 1015.4 1015.4 0.0
23/05:52pm 18.3 10.7 -2.1 25 8.5 W 28 46 15 25 1015.3 1015.3 0.0
23/05:30pm 18.7 9.7 -3.0 23 8.9 WSW 35 41 19 22 1014.9 1014.9 0.0
23/05:00pm 19.4 10.8 -2.8 22 9.2 WSW 33 41 18 22 1014.8 1014.8 0.0
23/04:30pm 20.7 10.6 -5.4 17 10.4 WSW 39 65 21 35 1014.4 1014.4 0.0
23/04:22pm 20.8 11.2 -4.6 17 10.3 WSW 37 65 20 35 1014.2 1014.2 0.0
23/04:00pm 22.1 12.3 -2.8 18 10.6 W 39 50 21 27 1013.7 1013.7 0.0
23/03:30pm 22.0 12.3 -2.6 19 10.5 WSW 39 48 21 26 1013.3 1013.3 0.0
23/03:00pm 22.8 12.5 2.9 27 9.5 WSW 46 57 25 31 1012.6 1012.6 0.0
23/02:30pm 22.8 15.5 7.4 37 8.0 WSW 35 46 19 25 1012.1 1012.1 0.0
23/02:00pm 23.8 16.6 9.2 39 7.9 WSW 37 50 20 27 1011.6 1011.6 0.0
23/01:30pm 23.4 15.9 9.6 41 7.5 WSW 39 50 21 27 1011.6 1011.6 0.0
23/01:00pm 24.8 17.2 10.4 40 8.0 WSW 41 54 22 29 1011.4 1011.4 0.0
23/12:30pm 26.8 18.2 8.3 31 10.0 W 43 57 23 31 1011.4 1011.4 0.0
23/12:20pm 27.2 21.5 8.4 30 10.2 W 28 63 15 34 1011.2 1011.2 0.0
23/12:00pm 27.0 20.4 8.6 31 10.0 WNW 33 46 18 25 1011.3 1011.3 0.0
23/11:48am 27.2 21.7 9.0 31 10.0 W 28 50 15 27 1011.4 1011.4 0.0
23/11:30am 26.8 22.8 9.1 32 9.7 WNW 20 32 11 17 1011.7 1011.7 0.0
23/11:00am 26.4 21.7 9.3 34 9.4 NW 24 32 13 17 1012.0 1012.0 0.0
23/10:30am 26.7 22.6 10.2 35 9.2 NNW 22 30 12 16 1012.6 1012.6 0.0
23/10:00am 24.4 21.1 11.0 43 7.5 NNW 19 28 10 15 1012.9 1012.9 0.0
23/09:30am 23.2 22.5 11.9 49 6.4 NNW 7 9 4 5 1013.3 1013.3 0.0
23/09:16am 21.5 21.1 12.9 58 4.9 WNW 7 11 4 6 1013.6 1013.6 0.0
23/09:00am 16.5 16.0 13.7 83 1.6 WNW 9 11 5 6 1013.7 1013.7 0.0
23/08:30am 16.6 17.8 13.8 83 1.6 CALM 0 7 0 4 1014.0 1014.0 0.0
23/08:00am 15.6 16.1 12.7 83 1.6 W 2 6 1 3 1014.2 1014.2 0.0
23/07:30am 14.4 14.8 12.4 88 1.1 W 2 6 1 3 1014.4 1014.4 0.0
23/07:00am 14.6 13.8 11.8 83 1.5 NNW 7 9 4 5 1014.4 1014.4 0.0
23/06:30am 13.5 12.5 12.2 92 0.7 W 9 13 5 7 1014.8 1014.8 0.0
23/06:00am 14.2 12.7 11.8 85 1.3 WNW 11 13 6 7 1014.9 1014.9 0.0
23/05:30am 14.3 13.2 11.9 85 1.3 NNW 9 9 5 5 1014.9 1014.9 0.0
23/05:00am 14.4 13.3 11.8 84 1.4 NNW 9 11 5 6 1015.2 1015.2 0.0
23/04:30am 14.1 12.3 12.1 88 1.1 NNW 13 15 7 8 1015.4 1015.4 0.0
23/04:00am 14.6 13.3 12.4 87 1.2 NNW 11 13 6 7 1015.8 1015.8 0.0
23/03:30am 14.7 13.5 12.7 88 1.1 NW 11 11 6 6 1016.1 1016.1 0.0
23/03:00am 14.8 14.0 13.0 89 1.0 WNW 9 13 5 7 1016.6 1016.6 0.0
23/02:30am 15.3 14.6 13.3 88 1.1 NNW 9 11 5 6 1016.8 1016.8 0.0
23/02:00am 15.5 15.0 13.7 89 1.0 NW 9 9 5 5 1017.0 1017.0 0.0
23/01:30am 15.9 15.5 14.0 88 1.1 NNW 9 11 5 6 1016.9 1016.9 0.0
23/01:00am 15.6 14.2 13.4 87 1.2 N 13 15 7 8 1017.2 1017.2 0.0
23/12:30am 16.2 15.7 13.7 85 1.4 NNW 9 11 5 6 1017.5 1017.5 0.0
23/12:00am 16.5 16.0 13.7 83 1.6 NNW 9 9 5 5 1017.8 1017.8 0.0
 
Date/Time
EST
Temp
°C
App
Temp
°C
Dew
Point
Rel
Hum
%
Delta-T
°C
Wind Press
QNH
hPa
Press
MSL
hPa
Rain
since 9 am
mm
Dir
 
Spd
km/h
Gust
km/h
Spd
kts
Gust
kts
22/11:30pm 17.1 16.6 13.7 80 1.9 NNW 9 11 5 6 1018.2 1018.2 0.0
22/11:00pm 17.7 17.7 14.2 80 2.0 NW 7 9 4 5 1018.3 1018.3 0.0
22/10:30pm 18.0 18.0 14.2 78 2.2 WNW 7 9 4 5 1018.6 1018.6 0.0
22/10:00pm 17.2 18.5 15.1 87 1.2 E 2 7 1 4 1018.8 1018.8 0.0
22/09:30pm 19.2 19.2 14.2 73 2.9 N 7 11 4 6 1019.0 1019.0 0.0
22/09:00pm 19.4 19.5 14.0 71 3.1 NW 6 7 3 4 1018.9 1018.9 0.0
22/08:30pm 18.2 17.5 14.2 77 2.3 SW 11 13 6 7 1019.2 1019.2 0.0
22/08:00pm 18.2 18.4 14.6 79 2.1 NW 7 11 4 6 1019.3 1019.3 0.0
22/07:30pm 20.8 20.0 13.9 64 4.0 NNE 11 13 6 7 1019.3 1019.3 0.0
22/07:00pm 20.5 19.0 14.3 67 3.6 NNE 15 17 8 9 1019.3 1019.3 0.0
22/06:30pm 20.9 19.3 14.0 64 4.0 N 15 17 8 9 1019.3 1019.3 0.0
22/06:00pm 21.2 19.3 14.1 64 4.1 NNE 17 22 9 12 1019.0 1019.0 0.0
22/05:30pm 21.2 19.0 14.5 65 3.9 NNE 19 24 10 13 1019.1 1019.1 0.0

Other Formats:

Comma delimited format used in spreadsheet applications
http://www.bom.gov.au/fwo/IDN60801/IDN60801.94767.axf

JavaScript Object Notation format (JSON) in row-major order
http://www.bom.gov.au/fwo/IDN60801/IDN60801.94767.json